createdAt,value
2023-05-01T00:03:25.994Z,20.87
2023-05-01T00:08:29.643Z,20.86
2023-05-01T00:13:34.530Z,20.88
2023-05-01T00:18:38.061Z,20.87
2023-05-01T00:23:41.540Z,20.85
2023-05-01T00:28:46.592Z,20.85
2023-05-01T00:33:50.016Z,20.86
2023-05-01T00:38:53.490Z,20.87
2023-05-01T00:43:58.606Z,20.85
2023-05-01T00:49:02.238Z,20.83
2023-05-01T00:54:07.328Z,20.83
2023-05-01T00:59:12.376Z,20.83
2023-05-01T01:04:15.974Z,20.81
2023-05-01T01:09:30.315Z,20.79
2023-05-01T01:14:40.958Z,20.78
2023-05-01T01:20:06.699Z,20.76
2023-05-01T01:25:45.811Z,20.76
2023-05-01T01:31:07.695Z,20.74
2023-05-01T01:36:17.720Z,20.75
2023-05-01T01:41:25.258Z,20.73
2023-05-01T01:46:29.126Z,20.73
2023-05-01T01:51:34.097Z,20.72
2023-05-01T01:56:39.086Z,20.72
2023-05-01T02:01:43.396Z,20.72
2023-05-01T02:06:49.208Z,20.70
2023-05-01T02:11:53.562Z,20.70
2023-05-01T02:16:57.667Z,20.69
2023-05-01T02:22:02.911Z,20.68
2023-05-01T02:27:15.144Z,20.68
2023-05-01T02:32:18.559Z,20.68
2023-05-01T02:37:23.501Z,20.69
2023-05-01T02:42:28.157Z,20.69
2023-05-01T02:47:33.512Z,20.67
2023-05-01T02:52:39.022Z,20.66
2023-05-01T02:57:43.187Z,20.65
2023-05-01T03:02:46.836Z,20.67
2023-05-01T03:07:51.912Z,20.64
2023-05-01T03:12:55.419Z,20.64
2023-05-01T03:17:58.863Z,20.64
2023-05-01T03:23:03.749Z,20.64
2023-05-01T03:28:07.162Z,20.64
2023-05-01T03:33:10.564Z,20.62
2023-05-01T03:38:15.459Z,20.62
2023-05-01T03:43:18.980Z,20.60
2023-05-01T03:48:22.686Z,20.60
2023-05-01T03:53:27.513Z,20.59
2023-05-01T03:58:31.001Z,20.59
2023-05-01T04:03:34.610Z,20.58
2023-05-01T04:08:39.760Z,20.58
2023-05-01T04:13:43.233Z,20.57
2023-05-01T04:18:46.762Z,20.58
2023-05-01T04:23:51.646Z,20.57
2023-05-01T04:28:55.135Z,20.54
2023-05-01T04:33:58.816Z,20.54
2023-05-01T04:39:03.708Z,20.53
2023-05-01T04:44:07.231Z,20.53
2023-05-01T04:49:10.779Z,20.52
2023-05-01T04:54:15.727Z,20.52
2023-05-01T04:59:19.258Z,20.51
2023-05-01T05:04:22.755Z,20.52
2023-05-01T05:09:27.654Z,20.52
2023-05-01T05:14:31.148Z,20.50
2023-05-01T05:19:34.572Z,20.50
2023-05-01T05:24:39.666Z,20.51
2023-05-01T05:29:43.136Z,20.51
2023-05-01T05:34:47.724Z,20.50
2023-05-01T05:39:52.636Z,20.52
2023-05-01T05:44:56.109Z,20.51
2023-05-01T05:49:59.634Z,20.50
2023-05-01T05:55:04.625Z,20.50
2023-05-01T06:00:10.289Z,20.51
2023-05-01T06:05:13.913Z,20.50
2023-05-01T06:10:19.029Z,20.56
2023-05-01T06:15:22.496Z,20.59
2023-05-01T06:20:25.964Z,20.63
2023-05-01T06:25:31.369Z,20.57
2023-05-01T06:30:34.849Z,20.60
2023-05-01T06:35:40.290Z,20.64
2023-05-01T06:40:47.223Z,20.68
2023-05-01T06:45:50.617Z,20.71
2023-05-01T06:50:54.128Z,20.72
2023-05-01T06:55:59.027Z,20.75
2023-05-01T07:01:02.778Z,20.73
2023-05-01T07:06:06.295Z,20.80
2023-05-01T07:11:11.141Z,20.85
2023-05-01T07:16:14.681Z,20.90
2023-05-01T07:21:18.258Z,20.95
2023-05-01T07:26:23.979Z,20.98
2023-05-01T07:31:27.490Z,21.02
2023-05-01T07:36:30.969Z,21.04
2023-05-01T07:41:35.897Z,21.10
2023-05-01T07:46:39.716Z,21.13
2023-05-01T07:51:44.262Z,21.14
2023-05-01T07:56:49.862Z,21.22
2023-05-01T08:01:53.461Z,21.21
2023-05-01T08:06:57.228Z,21.24
2023-05-01T08:12:03.517Z,21.25
2023-05-01T08:17:07.120Z,21.29
2023-05-01T08:22:10.641Z,21.30
2023-05-01T08:27:15.534Z,21.30
2023-05-01T08:32:20.006Z,21.26
2023-05-01T08:37:23.497Z,21.29
2023-05-01T08:42:30.398Z,21.57
2023-05-01T08:47:38.513Z,21.35
2023-05-01T08:52:43.554Z,21.37
2023-05-01T08:57:50.967Z,21.37
2023-05-01T09:02:54.541Z,21.39
2023-05-01T09:07:58.196Z,21.39
2023-05-01T09:13:07.214Z,21.42
2023-05-01T09:18:10.966Z,21.44
2023-05-01T09:23:14.529Z,21.42
2023-05-01T09:28:19.748Z,21.41
2023-05-01T09:33:23.263Z,21.42
2023-05-01T09:38:29.361Z,21.45
2023-05-01T09:43:34.246Z,21.44
2023-05-01T09:48:38.653Z,21.47
2023-05-01T09:53:42.364Z,21.47
2023-05-01T09:58:47.411Z,21.57
2023-05-01T10:03:55.544Z,21.51
2023-05-01T10:08:59.393Z,21.51
2023-05-01T10:14:11.716Z,21.48
2023-05-01T10:19:16.810Z,21.48
2023-05-01T10:24:20.657Z,21.51
2023-05-01T10:29:26.088Z,21.47
2023-05-01T10:34:30.033Z,21.47
2023-05-01T10:39:34.255Z,21.47
2023-05-01T10:44:39.409Z,21.51
2023-05-01T10:50:07.398Z,21.52
2023-05-01T10:55:34.959Z,21.52
2023-05-01T11:00:40.029Z,21.53
2023-05-01T11:06:08.568Z,21.52
2023-05-01T11:11:45.129Z,21.75
2023-05-01T11:16:50.276Z,21.75
2023-05-01T11:21:54.479Z,21.82
2023-05-01T11:27:00.213Z,21.90
2023-05-01T11:32:05.309Z,21.88
2023-05-01T11:37:08.807Z,21.87
2023-05-01T11:42:12.297Z,21.84
2023-05-01T11:47:17.222Z,21.85
2023-05-01T11:52:20.759Z,21.83
2023-05-01T11:57:24.500Z,21.83
2023-05-01T12:02:29.516Z,21.72
2023-05-01T12:07:34.367Z,21.61
2023-05-01T12:12:37.909Z,21.63
2023-05-01T12:17:45.401Z,21.65
2023-05-01T12:22:52.064Z,21.74
2023-05-01T12:27:55.531Z,21.81
2023-05-01T12:33:01.725Z,22.08
2023-05-01T12:38:12.897Z,22.05
2023-05-01T12:43:16.848Z,21.84
2023-05-01T12:48:21.974Z,21.79
2023-05-01T12:53:26.441Z,21.94
2023-05-01T12:58:37.164Z,22.11
2023-05-01T13:03:45.157Z,21.94
2023-05-01T13:08:48.633Z,21.92
2023-05-01T13:13:52.107Z,21.82
2023-05-01T13:18:57.029Z,21.58
2023-05-01T13:24:02.238Z,21.53
2023-05-01T13:29:06.125Z,21.54
2023-05-01T13:34:11.478Z,21.49
2023-05-01T13:39:21.488Z,21.51
2023-05-01T13:44:25.212Z,21.51
2023-05-01T13:49:30.350Z,21.51
2023-05-01T13:54:34.091Z,21.53
2023-05-01T13:59:40.590Z,21.56
2023-05-01T14:04:45.625Z,21.91
2023-05-01T14:09:54.862Z,21.94
2023-05-01T14:14:59.744Z,21.65
2023-05-01T14:20:05.841Z,21.57
2023-05-01T14:25:09.926Z,21.55
2023-05-01T14:30:15.671Z,21.57
2023-05-01T14:35:21.986Z,21.57
2023-05-01T14:40:28.056Z,21.55
2023-05-01T14:45:32.106Z,21.53
2023-05-01T14:50:36.996Z,21.53
2023-05-01T14:55:40.772Z,21.51
2023-05-01T15:00:44.245Z,21.52
2023-05-01T15:05:49.153Z,21.53
2023-05-01T15:10:53.687Z,21.55
2023-05-01T15:15:57.225Z,21.53
2023-05-01T15:21:02.896Z,21.62
2023-05-01T15:26:06.362Z,21.58
2023-05-01T15:31:09.825Z,21.55
2023-05-01T15:36:14.714Z,21.54
2023-05-01T15:41:19.253Z,21.86
2023-05-01T15:46:23.583Z,21.55
2023-05-01T15:51:28.617Z,21.51
2023-05-01T15:56:35.863Z,21.43
2023-05-01T16:01:39.359Z,21.41
2023-05-01T16:06:44.364Z,21.46
2023-05-01T16:11:47.892Z,21.42
2023-05-01T16:16:51.470Z,21.41
2023-05-01T16:21:56.638Z,21.51
2023-05-01T16:27:00.098Z,21.55
2023-05-01T16:32:06.144Z,21.41
2023-05-01T16:37:14.939Z,21.39
2023-05-01T16:42:18.395Z,21.35
2023-05-01T16:47:21.844Z,21.33
2023-05-01T16:52:26.769Z,21.32
2023-05-01T16:57:30.260Z,21.32
2023-05-01T17:02:34.936Z,21.31
2023-05-01T17:07:39.823Z,21.31
2023-05-01T17:12:43.343Z,21.30
2023-05-01T17:17:46.889Z,21.30
2023-05-01T17:22:51.865Z,21.31
2023-05-01T17:27:55.316Z,21.29
2023-05-01T17:32:58.842Z,21.31
2023-05-01T17:38:03.866Z,21.31
2023-05-01T17:43:07.436Z,21.30
2023-05-01T17:48:11.355Z,21.31
2023-05-01T17:53:16.236Z,21.31
2023-05-01T17:58:19.699Z,21.30
2023-05-01T18:03:23.420Z,21.31
2023-05-01T18:08:28.283Z,21.30
2023-05-01T18:13:38.092Z,21.31
2023-05-01T18:18:42.104Z,21.31
2023-05-01T18:23:48.499Z,21.31
2023-05-01T18:28:52.338Z,21.30
2023-05-01T18:33:55.840Z,21.30
2023-05-01T18:39:01.081Z,21.31
2023-05-01T18:44:04.557Z,21.30
2023-05-01T18:49:08.002Z,21.31
2023-05-01T18:54:12.899Z,21.30
2023-05-01T18:59:17.101Z,21.30
2023-05-01T19:04:20.619Z,21.31
2023-05-01T19:09:25.597Z,21.31
2023-05-01T19:14:29.094Z,21.30
2023-05-01T19:19:33.146Z,21.31
2023-05-01T19:24:38.047Z,21.31
2023-05-01T19:29:41.972Z,21.31
2023-05-01T19:34:45.441Z,21.30
2023-05-01T19:39:50.333Z,21.29
2023-05-01T19:44:53.821Z,21.29
2023-05-01T19:49:57.474Z,21.30
2023-05-01T19:55:03.354Z,21.30
2023-05-01T20:00:09.010Z,21.29
2023-05-01T20:05:13.322Z,21.29
2023-05-01T20:10:18.426Z,21.29
2023-05-01T20:15:21.956Z,21.29
2023-05-01T20:20:25.473Z,21.29
2023-05-01T20:25:30.358Z,21.28
2023-05-01T20:30:34.387Z,21.29
2023-05-01T20:35:38.183Z,21.29
2023-05-01T20:40:43.202Z,21.27
2023-05-01T20:45:46.966Z,21.28
2023-05-01T20:50:50.542Z,21.28
2023-05-01T20:55:55.435Z,21.29
2023-05-01T21:01:00.524Z,21.29
2023-05-01T21:06:04.161Z,21.29
2023-05-01T21:11:09.067Z,21.29
2023-05-01T21:16:15.990Z,21.29
2023-05-01T21:21:19.536Z,21.27
2023-05-01T21:26:24.472Z,21.28
2023-05-01T21:31:31.075Z,21.29
2023-05-01T21:36:43.619Z,21.28
2023-05-01T21:41:49.605Z,21.28
2023-05-01T21:46:56.016Z,21.29
2023-05-01T21:52:00.277Z,21.27
2023-05-01T21:57:07.834Z,21.26
2023-05-01T22:02:13.122Z,21.28
2023-05-01T22:07:16.799Z,21.28
2023-05-01T22:12:21.698Z,21.27
2023-05-01T22:17:25.295Z,21.28
2023-05-01T22:22:28.793Z,21.26
2023-05-01T22:27:33.780Z,21.28
2023-05-01T22:32:37.268Z,21.27
2023-05-01T22:37:40.761Z,21.24
2023-05-01T22:42:45.669Z,21.25
2023-05-01T22:47:49.113Z,21.24
2023-05-01T22:52:52.754Z,21.24
2023-05-01T22:57:57.798Z,21.25
2023-05-01T23:03:01.281Z,21.25
2023-05-01T23:08:04.994Z,21.23
2023-05-01T23:13:12.631Z,21.24
2023-05-01T23:18:16.901Z,21.22
2023-05-01T23:23:21.434Z,21.24
2023-05-01T23:28:27.354Z,21.22
2023-05-01T23:33:38.120Z,21.23
2023-05-01T23:38:41.637Z,21.22
2023-05-01T23:43:48.399Z,21.22
2023-05-01T23:48:51.865Z,21.23
2023-05-01T23:53:55.372Z,21.23
2023-05-01T23:59:00.193Z,21.22
